Terminal Aerodrome Forecast
Issued by NWS

Home | Current Version | Previous Version | Text Only | Print | Product List | Glossary On
Versions: 1 2 3 4 5 6 7 8 9 10 11 12 13 14 15 16 17 18 19 20
000
FTAK31 PAFA 242148 AAA
TAFAUN
TAF AMD
PAUN 242148Z 2422/2518 30006KT 2SM -SN BR BKN002
     FM242300 31006KT 6SM BR SCT002
     FM250600 VRB03KT P6SM BKN004
     FM251200 07004KT 2SM -SN BR BKN004=

USA.gov is the U.S. government's official web portal to all federal, state and local government web resources and services.